Airfield :
LOGIN :

Register | Disclaimer

   EN    FR    IT 

 










Legend :    VFR   Marginal VFR   IFR   Intensive IFR   Very Intensive IFR
Visi :
Ceiling :
>= 8 km
>= 3000ft
5 to 8 km
1000 to 3000 ft
1500m to 5 km
500 to 1000 ft
800 to 1500m
200 to 500 ft
< 800m
< 200 ft
Symbols :   Thunderstorms  Fog  Heavy snow  Heavy precipitations  Wind > 20 kt
SIGMETs :     Misc.  Thunderstorms  Icing  Turbulence  Mountain Waves  Volcanic Ashes






- Airport Elevation : 220 ft
- IATA code : CWL


EGFF - Cardiff Rhoose

CURRENT METAR :
  • 182020Z AUTO 29006KT 9999 NCD 07/01 Q1023

EXPIRED METARs :
  • 181950Z AUTO 30006KT 9999 NCD 07/00 Q1023
  • 181920Z AUTO 31006KT 9999 NCD 08/M00 Q1023
  • 181850Z AUTO 32006KT 9999 NCD 08/M00 Q1023
  • 181820Z AUTO 31008KT 9999 NCD 09/M00 Q1023
  • 181750Z AUTO 31007KT 9999 NCD 10/00 Q1023

TAF TAF EGFF
Valid from the 18 at 18:00 until the 19 at 18:00 UTC


181659Z 1818/1918 28006KT 9999 FEW048
PROB30
TEMPO 1821/1909 9000
ATIS : +44 1446 729 319



MET'MAP, your aeronautical weather chart ! - Copyright ORBIFLY December 2007 - Disclaimer

ORBIFLY MET'MAP TEAM :

Programming & Development : Alexandra Zaïnal
Concept & original design : Baudouin d'Aumeries
Assistance for programming : Marc-Olivier Méhu
Technical & hardware support : Manuel Goepfert

Contact : metmap@orbifly.com




SOURCES & CREDITS :

   NOAA